sensor_id;sensor_type;location;lat;lon;timestamp;P1;durP1;ratioP1;P2;durP2;ratioP2
70467;SDS011;57934;51.532;7.684;2022-07-22T00:01:36;20.08;;;14.38;;
70467;SDS011;57934;51.532;7.684;2022-07-22T00:04:03;18.50;;;13.68;;
70467;SDS011;57934;51.532;7.684;2022-07-22T00:06:29;22.00;;;13.45;;
70467;SDS011;57934;51.532;7.684;2022-07-22T00:08:56;20.42;;;14.27;;
70467;SDS011;57934;51.532;7.684;2022-07-22T00:11:22;18.77;;;12.05;;
70467;SDS011;57934;51.532;7.684;2022-07-22T00:13:49;18.55;;;11.13;;
70467;SDS011;57934;51.532;7.684;2022-07-22T00:16:15;19.73;;;11.10;;
70467;SDS011;57934;51.532;7.684;2022-07-22T00:18:41;14.02;;;9.98;;
70467;SDS011;57934;51.532;7.684;2022-07-22T00:21:08;14.70;;;9.60;;
70467;SDS011;57934;51.532;7.684;2022-07-22T00:23:34;13.02;;;8.05;;
70467;SDS011;57934;51.532;7.684;2022-07-22T00:26:00;11.38;;;8.05;;
70467;SDS011;57934;51.532;7.684;2022-07-22T00:28:26;11.77;;;8.18;;
70467;SDS011;57934;51.532;7.684;2022-07-22T00:30:52;12.40;;;6.75;;
70467;SDS011;57934;51.532;7.684;2022-07-22T00:33:18;10.85;;;7.10;;
70467;SDS011;57934;51.532;7.684;2022-07-22T00:35:44;7.45;;;6.85;;
70467;SDS011;57934;51.532;7.684;2022-07-22T00:38:10;7.20;;;6.50;;
70467;SDS011;57934;51.532;7.684;2022-07-22T00:40:36;8.25;;;6.43;;
70467;SDS011;57934;51.532;7.684;2022-07-22T00:43:02;8.43;;;6.60;;
70467;SDS011;57934;51.532;7.684;2022-07-22T00:45:28;8.35;;;6.32;;
70467;SDS011;57934;51.532;7.684;2022-07-22T00:47:54;9.57;;;7.45;;
70467;SDS011;57934;51.532;7.684;2022-07-22T00:50:20;10.98;;;7.75;;
70467;SDS011;57934;51.532;7.684;2022-07-22T00:52:46;8.82;;;7.93;;
70467;SDS011;57934;51.532;7.684;2022-07-22T00:55:13;14.77;;;9.77;;
70467;SDS011;57934;51.532;7.684;2022-07-22T00:57:39;9.77;;;8.75;;
70467;SDS011;57934;51.532;7.684;2022-07-22T01:00:07;12.68;;;9.73;;
70467;SDS011;57934;51.532;7.684;2022-07-22T01:02:36;10.90;;;9.55;;
70467;SDS011;57934;51.532;7.684;2022-07-22T01:05:02;15.27;;;10.68;;
70467;SDS011;57934;51.532;7.684;2022-07-22T01:07:28;12.40;;;10.90;;
70467;SDS011;57934;51.532;7.684;2022-07-22T01:09:54;14.80;;;12.02;;
70467;SDS011;57934;51.532;7.684;2022-07-22T01:12:20;15.68;;;11.57;;
70467;SDS011;57934;51.532;7.684;2022-07-22T01:14:46;13.63;;;11.70;;
70467;SDS011;57934;51.532;7.684;2022-07-22T01:17:12;14.98;;;10.80;;
70467;SDS011;57934;51.532;7.684;2022-07-22T01:19:38;14.88;;;9.80;;
70467;SDS011;57934;51.532;7.684;2022-07-22T01:22:05;12.50;;;9.35;;
70467;SDS011;57934;51.532;7.684;2022-07-22T01:24:31;10.52;;;9.30;;
70467;SDS011;57934;51.532;7.684;2022-07-22T01:26:58;12.30;;;8.98;;
70467;SDS011;57934;51.532;7.684;2022-07-22T01:29:24;10.02;;;9.02;;
70467;SDS011;57934;51.532;7.684;2022-07-22T01:31:50;9.90;;;8.23;;
70467;SDS011;57934;51.532;7.684;2022-07-22T01:34:17;8.63;;;7.80;;
70467;SDS011;57934;51.532;7.684;2022-07-22T01:36:43;10.20;;;7.95;;
70467;SDS011;57934;51.532;7.684;2022-07-22T01:39:09;7.05;;;6.07;;
70467;SDS011;57934;51.532;7.684;2022-07-22T01:41:35;7.32;;;6.63;;
70467;SDS011;57934;51.532;7.684;2022-07-22T01:44:01;9.30;;;6.38;;
70467;SDS011;57934;51.532;7.684;2022-07-22T01:46:28;7.15;;;6.45;;
70467;SDS011;57934;51.532;7.684;2022-07-22T01:48:54;10.05;;;6.68;;
70467;SDS011;57934;51.532;7.684;2022-07-22T01:51:21;7.55;;;6.90;;
70467;SDS011;57934;51.532;7.684;2022-07-22T01:53:48;8.77;;;7.03;;
70467;SDS011;57934;51.532;7.684;2022-07-22T01:56:14;10.13;;;7.07;;
70467;SDS011;57934;51.532;7.684;2022-07-22T01:58:47;8.50;;;6.30;;
70467;SDS011;57934;51.532;7.684;2022-07-22T02:01:20;7.82;;;5.93;;
70467;SDS011;57934;51.532;7.684;2022-07-22T02:03:47;11.75;;;5.88;;
70467;SDS011;57934;51.532;7.684;2022-07-22T02:06:12;7.72;;;4.90;;
70467;SDS011;57934;51.532;7.684;2022-07-22T02:08:39;5.30;;;4.68;;
70467;SDS011;57934;51.532;7.684;2022-07-22T02:11:19;6.75;;;4.50;;
70467;SDS011;57934;51.532;7.684;2022-07-22T02:13:52;7.30;;;4.88;;
70467;SDS011;57934;51.532;7.684;2022-07-22T02:16:19;8.25;;;5.00;;
70467;SDS011;57934;51.532;7.684;2022-07-22T02:18:46;4.78;;;4.38;;
70467;SDS011;57934;51.532;7.684;2022-07-22T02:21:13;7.00;;;5.03;;
70467;SDS011;57934;51.532;7.684;2022-07-22T02:23:39;10.68;;;6.00;;
70467;SDS011;57934;51.532;7.684;2022-07-22T02:26:05;13.05;;;6.10;;
70467;SDS011;57934;51.532;7.684;2022-07-22T02:28:31;10.15;;;5.65;;
70467;SDS011;57934;51.532;7.684;2022-07-22T02:30:57;12.02;;;6.63;;
70467;SDS011;57934;51.532;7.684;2022-07-22T02:33:23;11.63;;;6.82;;
70467;SDS011;57934;51.532;7.684;2022-07-22T02:35:49;14.98;;;6.22;;
70467;SDS011;57934;51.532;7.684;2022-07-22T02:38:15;8.43;;;5.75;;
70467;SDS011;57934;51.532;7.684;2022-07-22T02:40:42;8.70;;;5.40;;
70467;SDS011;57934;51.532;7.684;2022-07-22T02:43:09;7.80;;;4.65;;
70467;SDS011;57934;51.532;7.684;2022-07-22T02:45:35;9.50;;;5.43;;
70467;SDS011;57934;51.532;7.684;2022-07-22T02:48:01;7.82;;;4.70;;
70467;SDS011;57934;51.532;7.684;2022-07-22T02:50:27;5.35;;;4.55;;
70467;SDS011;57934;51.532;7.684;2022-07-22T02:52:53;11.57;;;4.85;;
70467;SDS011;57934;51.532;7.684;2022-07-22T02:55:23;6.43;;;5.00;;
70467;SDS011;57934;51.532;7.684;2022-07-22T02:57:51;11.93;;;4.55;;
70467;SDS011;57934;51.532;7.684;2022-07-22T03:00:17;5.85;;;4.57;;
70467;SDS011;57934;51.532;7.684;2022-07-22T03:02:44;6.05;;;5.03;;
70467;SDS011;57934;51.532;7.684;2022-07-22T03:05:10;8.43;;;4.75;;
70467;SDS011;57934;51.532;7.684;2022-07-22T03:07:43;8.05;;;4.80;;
70467;SDS011;57934;51.532;7.684;2022-07-22T03:10:11;6.78;;;4.70;;
70467;SDS011;57934;51.532;7.684;2022-07-22T03:12:37;6.10;;;5.05;;
70467;SDS011;57934;51.532;7.684;2022-07-22T03:15:03;5.97;;;4.82;;
70467;SDS011;57934;51.532;7.684;2022-07-22T03:17:33;8.77;;;5.22;;
70467;SDS011;57934;51.532;7.684;2022-07-22T03:20:01;8.85;;;5.70;;
70467;SDS011;57934;51.532;7.684;2022-07-22T03:22:31;10.88;;;5.65;;
70467;SDS011;57934;51.532;7.684;2022-07-22T03:24:57;6.40;;;5.32;;
70467;SDS011;57934;51.532;7.684;2022-07-22T03:27:23;11.35;;;6.22;;
70467;SDS011;57934;51.532;7.684;2022-07-22T03:29:49;12.48;;;6.68;;
70467;SDS011;57934;51.532;7.684;2022-07-22T03:32:15;9.60;;;6.05;;
70467;SDS011;57934;51.532;7.684;2022-07-22T03:34:46;8.27;;;5.68;;
70467;SDS011;57934;51.532;7.684;2022-07-22T03:37:12;9.75;;;5.63;;
70467;SDS011;57934;51.532;7.684;2022-07-22T03:39:39;12.68;;;6.30;;
70467;SDS011;57934;51.532;7.684;2022-07-22T03:42:05;8.93;;;5.85;;
70467;SDS011;57934;51.532;7.684;2022-07-22T03:44:38;8.35;;;6.50;;
70467;SDS011;57934;51.532;7.684;2022-07-22T03:47:04;8.85;;;6.55;;
70467;SDS011;57934;51.532;7.684;2022-07-22T03:49:30;12.07;;;6.88;;
70467;SDS011;57934;51.532;7.684;2022-07-22T03:51:58;11.15;;;7.70;;
70467;SDS011;57934;51.532;7.684;2022-07-22T03:54:25;13.55;;;6.90;;
70467;SDS011;57934;51.532;7.684;2022-07-22T03:56:51;11.88;;;7.15;;
70467;SDS011;57934;51.532;7.684;2022-07-22T03:59:17;10.88;;;7.05;;
70467;SDS011;57934;51.532;7.684;2022-07-22T04:01:43;14.57;;;6.68;;
70467;SDS011;57934;51.532;7.684;2022-07-22T04:04:11;9.30;;;6.10;;
70467;SDS011;57934;51.532;7.684;2022-07-22T04:06:42;7.63;;;5.65;;
70467;SDS011;57934;51.532;7.684;2022-07-22T04:09:16;11.85;;;5.97;;
70467;SDS011;57934;51.532;7.684;2022-07-22T04:11:42;8.90;;;5.65;;
70467;SDS011;57934;51.532;7.684;2022-07-22T04:14:09;9.13;;;6.22;;
70467;SDS011;57934;51.532;7.684;2022-07-22T04:16:36;10.10;;;6.00;;
70467;SDS011;57934;51.532;7.684;2022-07-22T04:19:09;8.60;;;5.10;;
70467;SDS011;57934;51.532;7.684;2022-07-22T04:22:05;7.93;;;5.70;;
70467;SDS011;57934;51.532;7.684;2022-07-22T04:24:31;9.50;;;5.30;;
70467;SDS011;57934;51.532;7.684;2022-07-22T04:26:58;12.18;;;5.20;;
70467;SDS011;57934;51.532;7.684;2022-07-22T04:29:24;12.55;;;5.15;;
70467;SDS011;57934;51.532;7.684;2022-07-22T04:31:50;5.60;;;4.45;;
70467;SDS011;57934;51.532;7.684;2022-07-22T04:34:18;9.35;;;5.22;;
70467;SDS011;57934;51.532;7.684;2022-07-22T04:36:46;11.88;;;4.38;;
70467;SDS011;57934;51.532;7.684;2022-07-22T04:39:12;6.60;;;4.65;;
70467;SDS011;57934;51.532;7.684;2022-07-22T04:41:44;12.95;;;4.55;;
70467;SDS011;57934;51.532;7.684;2022-07-22T04:44:13;10.02;;;4.60;;
70467;SDS011;57934;51.532;7.684;2022-07-22T04:46:39;8.65;;;4.65;;
70467;SDS011;57934;51.532;7.684;2022-07-22T04:49:05;9.57;;;4.78;;
70467;SDS011;57934;51.532;7.684;2022-07-22T04:51:32;10.07;;;5.38;;
70467;SDS011;57934;51.532;7.684;2022-07-22T04:54:03;10.30;;;5.35;;
70467;SDS011;57934;51.532;7.684;2022-07-22T04:56:29;10.55;;;5.22;;
70467;SDS011;57934;51.532;7.684;2022-07-22T04:58:55;9.10;;;5.20;;
70467;SDS011;57934;51.532;7.684;2022-07-22T05:01:23;11.82;;;5.43;;
70467;SDS011;57934;51.532;7.684;2022-07-22T05:03:50;10.68;;;6.32;;
70467;SDS011;57934;51.532;7.684;2022-07-22T05:06:18;9.88;;;5.03;;
70467;SDS011;57934;51.532;7.684;2022-07-22T05:08:44;13.48;;;4.93;;
70467;SDS011;57934;51.532;7.684;2022-07-22T05:11:10;7.38;;;4.70;;
70467;SDS011;57934;51.532;7.684;2022-07-22T05:13:37;7.70;;;4.80;;
70467;SDS011;57934;51.532;7.684;2022-07-22T05:16:04;12.25;;;5.20;;
70467;SDS011;57934;51.532;7.684;2022-07-22T05:18:33;14.35;;;6.10;;
70467;SDS011;57934;51.532;7.684;2022-07-22T05:21:00;9.60;;;5.40;;
70467;SDS011;57934;51.532;7.684;2022-07-22T05:23:27;10.93;;;5.90;;
70467;SDS011;57934;51.532;7.684;2022-07-22T05:25:53;8.77;;;5.80;;
70467;SDS011;57934;51.532;7.684;2022-07-22T05:28:19;12.88;;;6.18;;
70467;SDS011;57934;51.532;7.684;2022-07-22T05:30:47;13.38;;;6.85;;
70467;SDS011;57934;51.532;7.684;2022-07-22T05:33:14;10.63;;;6.10;;
70467;SDS011;57934;51.532;7.684;2022-07-22T05:35:59;12.50;;;6.65;;
70467;SDS011;57934;51.532;7.684;2022-07-22T05:38:31;17.27;;;5.70;;
70467;SDS011;57934;51.532;7.684;2022-07-22T05:40:58;13.80;;;5.57;;
70467;SDS011;57934;51.532;7.684;2022-07-22T05:43:24;12.18;;;5.38;;
70467;SDS011;57934;51.532;7.684;2022-07-22T05:45:51;15.63;;;5.22;;
70467;SDS011;57934;51.532;7.684;2022-07-22T05:48:18;18.02;;;6.05;;
70467;SDS011;57934;51.532;7.684;2022-07-22T05:50:44;12.73;;;5.53;;
70467;SDS011;57934;51.532;7.684;2022-07-22T05:53:10;14.00;;;6.75;;
70467;SDS011;57934;51.532;7.684;2022-07-22T05:55:36;14.05;;;6.70;;
70467;SDS011;57934;51.532;7.684;2022-07-22T05:58:02;17.15;;;6.93;;
70467;SDS011;57934;51.532;7.684;2022-07-22T06:00:28;14.82;;;7.35;;
70467;SDS011;57934;51.532;7.684;2022-07-22T06:02:54;13.45;;;8.10;;
70467;SDS011;57934;51.532;7.684;2022-07-22T06:05:21;16.10;;;7.53;;
70467;SDS011;57934;51.532;7.684;2022-07-22T06:07:48;24.60;;;9.35;;
70467;SDS011;57934;51.532;7.684;2022-07-22T06:10:24;18.63;;;7.82;;
70467;SDS011;57934;51.532;7.684;2022-07-22T06:12:50;12.23;;;7.93;;
70467;SDS011;57934;51.532;7.684;2022-07-22T06:15:16;15.10;;;7.85;;
70467;SDS011;57934;51.532;7.684;2022-07-22T06:17:42;14.68;;;8.18;;
70467;SDS011;57934;51.532;7.684;2022-07-22T06:20:09;16.48;;;5.22;;
70467;SDS011;57934;51.532;7.684;2022-07-22T06:22:36;10.52;;;5.13;;
70467;SDS011;57934;51.532;7.684;2022-07-22T06:25:04;10.57;;;4.82;;
70467;SDS011;57934;51.532;7.684;2022-07-22T06:27:31;6.32;;;3.17;;
70467;SDS011;57934;51.532;7.684;2022-07-22T06:29:57;8.55;;;3.75;;
70467;SDS011;57934;51.532;7.684;2022-07-22T06:32:23;12.23;;;4.00;;
70467;SDS011;57934;51.532;7.684;2022-07-22T06:34:50;12.65;;;4.45;;
70467;SDS011;57934;51.532;7.684;2022-07-22T06:37:16;12.43;;;4.72;;
70467;SDS011;57934;51.532;7.684;2022-07-22T06:39:42;13.98;;;5.40;;
70467;SDS011;57934;51.532;7.684;2022-07-22T06:42:14;14.05;;;6.05;;
70467;SDS011;57934;51.532;7.684;2022-07-22T06:45:12;10.30;;;4.95;;
70467;SDS011;57934;51.532;7.684;2022-07-22T06:47:53;11.27;;;5.68;;
70467;SDS011;57934;51.532;7.684;2022-07-22T06:50:20;13.13;;;5.32;;
70467;SDS011;57934;51.532;7.684;2022-07-22T06:52:46;13.23;;;4.80;;
70467;SDS011;57934;51.532;7.684;2022-07-22T06:55:12;12.27;;;4.45;;
70467;SDS011;57934;51.532;7.684;2022-07-22T06:57:43;9.88;;;4.53;;
70467;SDS011;57934;51.532;7.684;2022-07-22T07:00:09;11.68;;;4.70;;
70467;SDS011;57934;51.532;7.684;2022-07-22T07:02:59;11.73;;;4.10;;
70467;SDS011;57934;51.532;7.684;2022-07-22T07:05:26;7.78;;;3.65;;
70467;SDS011;57934;51.532;7.684;2022-07-22T07:07:55;12.45;;;4.35;;
70467;SDS011;57934;51.532;7.684;2022-07-22T07:10:21;12.60;;;4.22;;
70467;SDS011;57934;51.532;7.684;2022-07-22T07:13:01;11.38;;;3.90;;
70467;SDS011;57934;51.532;7.684;2022-07-22T07:15:40;12.32;;;3.60;;
70467;SDS011;57934;51.532;7.684;2022-07-22T07:18:08;12.65;;;3.15;;
70467;SDS011;57934;51.532;7.684;2022-07-22T07:20:34;10.60;;;3.28;;
70467;SDS011;57934;51.532;7.684;2022-07-22T07:23:00;10.07;;;4.07;;
70467;SDS011;57934;51.532;7.684;2022-07-22T07:25:29;12.48;;;3.42;;
70467;SDS011;57934;51.532;7.684;2022-07-22T07:27:55;7.00;;;3.10;;
70467;SDS011;57934;51.532;7.684;2022-07-22T07:30:40;12.05;;;3.70;;
70467;SDS011;57934;51.532;7.684;2022-07-22T07:33:06;11.32;;;4.45;;
70467;SDS011;57934;51.532;7.684;2022-07-22T07:35:32;12.38;;;3.50;;
70467;SDS011;57934;51.532;7.684;2022-07-22T07:37:59;9.38;;;3.47;;
70467;SDS011;57934;51.532;7.684;2022-07-22T07:40:25;10.10;;;3.80;;
70467;SDS011;57934;51.532;7.684;2022-07-22T07:42:51;8.50;;;3.08;;
70467;SDS011;57934;51.532;7.684;2022-07-22T07:45:17;11.38;;;3.88;;
70467;SDS011;57934;51.532;7.684;2022-07-22T07:47:43;11.50;;;3.15;;
70467;SDS011;57934;51.532;7.684;2022-07-22T07:50:10;7.53;;;2.40;;
70467;SDS011;57934;51.532;7.684;2022-07-22T07:52:38;17.17;;;3.50;;
70467;SDS011;57934;51.532;7.684;2022-07-22T07:55:05;6.90;;;3.20;;
70467;SDS011;57934;51.532;7.684;2022-07-22T07:57:32;7.43;;;2.72;;
70467;SDS011;57934;51.532;7.684;2022-07-22T07:59:59;12.70;;;2.88;;
70467;SDS011;57934;51.532;7.684;2022-07-22T08:02:25;7.32;;;3.33;;
70467;SDS011;57934;51.532;7.684;2022-07-22T08:04:51;6.65;;;3.03;;
70467;SDS011;57934;51.532;7.684;2022-07-22T08:07:19;7.93;;;2.95;;
70467;SDS011;57934;51.532;7.684;2022-07-22T08:09:46;12.48;;;3.72;;
70467;SDS011;57934;51.532;7.684;2022-07-22T08:12:21;7.18;;;3.38;;
70467;SDS011;57934;51.532;7.684;2022-07-22T08:14:58;7.00;;;3.22;;
70467;SDS011;57934;51.532;7.684;2022-07-22T08:17:29;6.63;;;2.70;;
70467;SDS011;57934;51.532;7.684;2022-07-22T08:19:55;7.75;;;2.83;;
70467;SDS011;57934;51.532;7.684;2022-07-22T08:22:21;8.68;;;4.80;;
70467;SDS011;57934;51.532;7.684;2022-07-22T08:24:48;13.65;;;6.95;;
70467;SDS011;57934;51.532;7.684;2022-07-22T08:27:16;14.10;;;6.90;;
70467;SDS011;57934;51.532;7.684;2022-07-22T08:29:42;10.27;;;6.07;;
70467;SDS011;57934;51.532;7.684;2022-07-22T08:32:09;13.05;;;6.00;;
70467;SDS011;57934;51.532;7.684;2022-07-22T08:34:35;12.10;;;5.68;;
70467;SDS011;57934;51.532;7.684;2022-07-22T08:37:01;8.35;;;5.22;;
70467;SDS011;57934;51.532;7.684;2022-07-22T08:39:27;8.90;;;5.07;;
70467;SDS011;57934;51.532;7.684;2022-07-22T08:41:54;9.25;;;5.15;;
70467;SDS011;57934;51.532;7.684;2022-07-22T08:44:21;10.45;;;6.25;;
70467;SDS011;57934;51.532;7.684;2022-07-22T08:46:48;10.93;;;7.20;;
70467;SDS011;57934;51.532;7.684;2022-07-22T08:49:19;8.48;;;6.60;;
70467;SDS011;57934;51.532;7.684;2022-07-22T08:52:09;12.90;;;7.38;;
70467;SDS011;57934;51.532;7.684;2022-07-22T08:54:37;17.80;;;9.02;;
70467;SDS011;57934;51.532;7.684;2022-07-22T08:57:04;16.80;;;13.27;;
70467;SDS011;57934;51.532;7.684;2022-07-22T08:59:30;21.83;;;15.68;;
70467;SDS011;57934;51.532;7.684;2022-07-22T09:02:16;25.63;;;19.48;;
70467;SDS011;57934;51.532;7.684;2022-07-22T09:07:30;18.42;;;16.33;;
70467;SDS011;57934;51.532;7.684;2022-07-22T09:10:32;24.02;;;18.20;;
70467;SDS011;57934;51.532;7.684;2022-07-22T09:13:18;19.52;;;15.65;;
70467;SDS011;57934;51.532;7.684;2022-07-22T09:15:55;21.73;;;18.83;;
70467;SDS011;57934;51.532;7.684;2022-07-22T09:18:49;24.35;;;19.63;;
70467;SDS011;57934;51.532;7.684;2022-07-22T09:21:35;27.00;;;17.45;;
70467;SDS011;57934;51.532;7.684;2022-07-22T09:24:09;21.13;;;15.75;;
70467;SDS011;57934;51.532;7.684;2022-07-22T09:27:24;30.55;;;17.77;;
70467;SDS011;57934;51.532;7.684;2022-07-22T09:30:20;21.63;;;13.27;;
70467;SDS011;57934;51.532;7.684;2022-07-22T09:32:52;14.57;;;8.95;;
70467;SDS011;57934;51.532;7.684;2022-07-22T09:35:35;15.82;;;9.93;;
70467;SDS011;57934;51.532;7.684;2022-07-22T09:38:02;14.32;;;10.68;;
70467;SDS011;57934;51.532;7.684;2022-07-22T09:40:35;16.92;;;10.35;;
70467;SDS011;57934;51.532;7.684;2022-07-22T09:43:06;15.75;;;10.35;;
70467;SDS011;57934;51.532;7.684;2022-07-22T09:45:51;14.35;;;9.48;;
70467;SDS011;57934;51.532;7.684;2022-07-22T09:48:36;12.32;;;8.18;;
70467;SDS011;57934;51.532;7.684;2022-07-22T09:51:20;13.43;;;8.87;;
70467;SDS011;57934;51.532;7.684;2022-07-22T09:54:09;13.18;;;8.73;;
70467;SDS011;57934;51.532;7.684;2022-07-22T09:56:37;12.77;;;9.50;;
70467;SDS011;57934;51.532;7.684;2022-07-22T09:59:04;13.75;;;9.02;;
70467;SDS011;57934;51.532;7.684;2022-07-22T10:01:36;11.73;;;6.82;;
70467;SDS011;57934;51.532;7.684;2022-07-22T10:04:03;8.50;;;5.97;;
70467;SDS011;57934;51.532;7.684;2022-07-22T10:06:31;8.40;;;5.20;;
70467;SDS011;57934;51.532;7.684;2022-07-22T10:08:59;6.97;;;4.63;;
70467;SDS011;57934;51.532;7.684;2022-07-22T10:11:26;9.02;;;4.20;;
70467;SDS011;57934;51.532;7.684;2022-07-22T10:13:52;7.45;;;4.30;;
70467;SDS011;57934;51.532;7.684;2022-07-22T10:16:18;6.70;;;4.25;;
70467;SDS011;57934;51.532;7.684;2022-07-22T10:18:46;5.32;;;4.00;;
70467;SDS011;57934;51.532;7.684;2022-07-22T10:21:13;5.65;;;4.13;;
70467;SDS011;57934;51.532;7.684;2022-07-22T10:26:56;6.13;;;3.70;;
70467;SDS011;57934;51.532;7.684;2022-07-22T10:29:27;7.53;;;4.03;;
70467;SDS011;57934;51.532;7.684;2022-07-22T10:40:26;12.27;;;7.82;;
70467;SDS011;57934;51.532;7.684;2022-07-22T10:46:00;11.60;;;9.77;;
70467;SDS011;57934;51.532;7.684;2022-07-22T10:48:25;10.30;;;8.55;;
70467;SDS011;57934;51.532;7.684;2022-07-22T10:51:17;15.95;;;9.52;;
70467;SDS011;57934;51.532;7.684;2022-07-22T10:58:53;13.20;;;10.20;;
70467;SDS011;57934;51.532;7.684;2022-07-22T11:01:27;13.40;;;7.85;;
70467;SDS011;57934;51.532;7.684;2022-07-22T11:03:55;9.50;;;7.30;;
70467;SDS011;57934;51.532;7.684;2022-07-22T11:06:32;10.85;;;7.45;;
70467;SDS011;57934;51.532;7.684;2022-07-22T11:09:02;12.38;;;7.60;;
70467;SDS011;57934;51.532;7.684;2022-07-22T11:11:34;9.05;;;6.95;;
70467;SDS011;57934;51.532;7.684;2022-07-22T11:14:19;11.27;;;6.43;;
70467;SDS011;57934;51.532;7.684;2022-07-22T11:17:11;9.52;;;7.22;;
70467;SDS011;57934;51.532;7.684;2022-07-22T11:19:39;7.55;;;6.70;;
70467;SDS011;57934;51.532;7.684;2022-07-22T11:22:12;9.50;;;6.65;;
70467;SDS011;57934;51.532;7.684;2022-07-22T11:24:40;9.50;;;6.45;;
70467;SDS011;57934;51.532;7.684;2022-07-22T11:27:14;8.85;;;6.60;;
70467;SDS011;57934;51.532;7.684;2022-07-22T11:29:43;11.65;;;8.00;;
70467;SDS011;57934;51.532;7.684;2022-07-22T11:32:14;9.82;;;7.20;;
70467;SDS011;57934;51.532;7.684;2022-07-22T11:34:41;12.68;;;7.88;;
70467;SDS011;57934;51.532;7.684;2022-07-22T11:37:11;10.38;;;7.60;;
70467;SDS011;57934;51.532;7.684;2022-07-22T11:39:37;13.52;;;9.85;;
70467;SDS011;57934;51.532;7.684;2022-07-22T11:42:03;12.40;;;9.25;;
70467;SDS011;57934;51.532;7.684;2022-07-22T11:44:31;11.57;;;9.00;;
70467;SDS011;57934;51.532;7.684;2022-07-22T11:46:58;18.00;;;9.90;;
70467;SDS011;57934;51.532;7.684;2022-07-22T11:49:29;15.95;;;9.80;;
70467;SDS011;57934;51.532;7.684;2022-07-22T11:51:56;15.15;;;9.73;;
70467;SDS011;57934;51.532;7.684;2022-07-22T11:54:22;15.13;;;9.68;;
70467;SDS011;57934;51.532;7.684;2022-07-22T11:56:48;11.75;;;9.55;;
70467;SDS011;57934;51.532;7.684;2022-07-22T11:59:15;13.05;;;9.00;;
70467;SDS011;57934;51.532;7.684;2022-07-22T12:01:43;12.95;;;8.60;;
70467;SDS011;57934;51.532;7.684;2022-07-22T12:04:12;11.40;;;8.32;;
70467;SDS011;57934;51.532;7.684;2022-07-22T12:06:40;9.40;;;8.07;;
70467;SDS011;57934;51.532;7.684;2022-07-22T12:09:08;13.00;;;8.38;;
70467;SDS011;57934;51.532;7.684;2022-07-22T12:11:39;11.77;;;9.23;;
70467;SDS011;57934;51.532;7.684;2022-07-22T12:14:16;13.95;;;8.68;;
70467;SDS011;57934;51.532;7.684;2022-07-22T12:19:32;12.93;;;10.70;;
70467;SDS011;57934;51.532;7.684;2022-07-22T12:22:06;11.93;;;10.63;;
70467;SDS011;57934;51.532;7.684;2022-07-22T12:24:42;14.48;;;12.32;;
70467;SDS011;57934;51.532;7.684;2022-07-22T12:27:13;16.20;;;12.07;;
70467;SDS011;57934;51.532;7.684;2022-07-22T12:29:42;15.20;;;12.50;;
70467;SDS011;57934;51.532;7.684;2022-07-22T12:34:57;15.27;;;12.57;;
70467;SDS011;57934;51.532;7.684;2022-07-22T12:37:43;15.68;;;12.65;;
70467;SDS011;57934;51.532;7.684;2022-07-22T12:42:43;17.77;;;13.43;;
70467;SDS011;57934;51.532;7.684;2022-07-22T12:47:42;16.38;;;11.23;;
70467;SDS011;57934;51.532;7.684;2022-07-22T12:50:28;15.88;;;12.32;;
70467;SDS011;57934;51.532;7.684;2022-07-22T12:52:57;17.60;;;13.05;;
70467;SDS011;57934;51.532;7.684;2022-07-22T12:55:26;14.55;;;11.10;;
70467;SDS011;57934;51.532;7.684;2022-07-22T12:57:52;14.50;;;10.50;;
70467;SDS011;57934;51.532;7.684;2022-07-22T13:00:19;13.30;;;11.02;;
70467;SDS011;57934;51.532;7.684;2022-07-22T13:02:56;11.88;;;10.60;;
70467;SDS011;57934;51.532;7.684;2022-07-22T13:05:22;15.68;;;10.80;;
70467;SDS011;57934;51.532;7.684;2022-07-22T13:07:49;12.77;;;11.43;;
70467;SDS011;57934;51.532;7.684;2022-07-22T13:10:16;13.35;;;10.95;;
70467;SDS011;57934;51.532;7.684;2022-07-22T13:12:42;16.60;;;12.18;;
70467;SDS011;57934;51.532;7.684;2022-07-22T13:15:08;12.80;;;11.30;;
70467;SDS011;57934;51.532;7.684;2022-07-22T13:17:34;13.82;;;12.18;;
70467;SDS011;57934;51.532;7.684;2022-07-22T13:20:01;14.50;;;12.95;;
70467;SDS011;57934;51.532;7.684;2022-07-22T13:22:28;18.48;;;14.38;;
70467;SDS011;57934;51.532;7.684;2022-07-22T13:24:54;16.70;;;13.95;;
70467;SDS011;57934;51.532;7.684;2022-07-22T13:27:20;23.15;;;14.98;;
70467;SDS011;57934;51.532;7.684;2022-07-22T13:29:46;17.65;;;14.90;;
70467;SDS011;57934;51.532;7.684;2022-07-22T13:32:12;17.23;;;14.23;;
70467;SDS011;57934;51.532;7.684;2022-07-22T13:34:38;19.90;;;14.05;;
70467;SDS011;57934;51.532;7.684;2022-07-22T13:37:04;18.10;;;14.63;;
70467;SDS011;57934;51.532;7.684;2022-07-22T13:39:30;16.98;;;13.75;;
70467;SDS011;57934;51.532;7.684;2022-07-22T13:41:56;19.38;;;14.30;;
70467;SDS011;57934;51.532;7.684;2022-07-22T13:44:22;21.52;;;17.55;;
70467;SDS011;57934;51.532;7.684;2022-07-22T13:46:48;21.13;;;17.52;;
70467;SDS011;57934;51.532;7.684;2022-07-22T13:49:14;23.67;;;18.52;;
70467;SDS011;57934;51.532;7.684;2022-07-22T13:51:40;22.58;;;18.45;;
70467;SDS011;57934;51.532;7.684;2022-07-22T13:54:06;21.20;;;18.58;;
70467;SDS011;57934;51.532;7.684;2022-07-22T13:56:33;24.45;;;18.83;;
70467;SDS011;57934;51.532;7.684;2022-07-22T13:58:59;25.48;;;18.63;;
70467;SDS011;57934;51.532;7.684;2022-07-22T14:01:25;23.23;;;17.63;;
70467;SDS011;57934;51.532;7.684;2022-07-22T14:03:51;20.35;;;16.67;;
70467;SDS011;57934;51.532;7.684;2022-07-22T14:06:17;18.52;;;16.48;;
70467;SDS011;57934;51.532;7.684;2022-07-22T14:08:43;20.50;;;16.50;;
70467;SDS011;57934;51.532;7.684;2022-07-22T14:11:09;23.55;;;16.85;;
70467;SDS011;57934;51.532;7.684;2022-07-22T14:13:35;18.40;;;15.95;;
70467;SDS011;57934;51.532;7.684;2022-07-22T14:16:02;20.75;;;16.20;;
70467;SDS011;57934;51.532;7.684;2022-07-22T14:18:46;20.40;;;16.02;;
70467;SDS011;57934;51.532;7.684;2022-07-22T14:21:12;22.10;;;16.80;;
70467;SDS011;57934;51.532;7.684;2022-07-22T14:23:38;19.48;;;15.63;;
70467;SDS011;57934;51.532;7.684;2022-07-22T14:26:04;18.23;;;15.48;;
70467;SDS011;57934;51.532;7.684;2022-07-22T14:28:31;20.48;;;15.63;;
70467;SDS011;57934;51.532;7.684;2022-07-22T14:30:57;23.10;;;17.35;;
70467;SDS011;57934;51.532;7.684;2022-07-22T14:33:23;18.30;;;15.68;;
70467;SDS011;57934;51.532;7.684;2022-07-22T14:35:49;18.35;;;15.30;;
70467;SDS011;57934;51.532;7.684;2022-07-22T14:38:15;16.48;;;14.60;;
70467;SDS011;57934;51.532;7.684;2022-07-22T14:40:41;20.70;;;14.70;;
70467;SDS011;57934;51.532;7.684;2022-07-22T14:43:07;16.20;;;14.50;;
70467;SDS011;57934;51.532;7.684;2022-07-22T14:45:33;17.55;;;14.95;;
70467;SDS011;57934;51.532;7.684;2022-07-22T14:47:59;18.25;;;16.25;;
70467;SDS011;57934;51.532;7.684;2022-07-22T14:50:25;20.70;;;15.07;;
70467;SDS011;57934;51.532;7.684;2022-07-22T14:52:51;20.70;;;15.45;;
70467;SDS011;57934;51.532;7.684;2022-07-22T14:55:17;18.98;;;14.55;;
70467;SDS011;57934;51.532;7.684;2022-07-22T14:57:43;17.60;;;14.95;;
70467;SDS011;57934;51.532;7.684;2022-07-22T15:00:09;20.13;;;15.07;;
70467;SDS011;57934;51.532;7.684;2022-07-22T15:02:35;18.75;;;15.75;;
70467;SDS011;57934;51.532;7.684;2022-07-22T15:05:01;16.60;;;14.90;;
70467;SDS011;57934;51.532;7.684;2022-07-22T15:07:27;16.58;;;14.75;;
70467;SDS011;57934;51.532;7.684;2022-07-22T15:09:53;19.13;;;16.13;;
70467;SDS011;57934;51.532;7.684;2022-07-22T15:12:19;20.17;;;14.57;;
70467;SDS011;57934;51.532;7.684;2022-07-22T15:14:45;20.65;;;14.90;;
70467;SDS011;57934;51.532;7.684;2022-07-22T15:17:11;17.73;;;15.35;;
70467;SDS011;57934;51.532;7.684;2022-07-22T15:19:37;18.63;;;15.45;;